createdAt,value
2022-08-30T00:02:10.790Z,58.20
2022-08-30T00:04:40.031Z,58.20
2022-08-30T00:07:06.994Z,58.30
2022-08-30T00:09:36.959Z,58.30
2022-08-30T00:12:04.534Z,58.30
2022-08-30T00:14:31.472Z,58.40
2022-08-30T00:17:00.925Z,58.40
2022-08-30T00:19:30.317Z,58.50
2022-08-30T00:22:00.284Z,58.40
2022-08-30T00:24:30.636Z,58.50
2022-08-30T00:26:57.598Z,58.50
2022-08-30T00:29:24.594Z,58.50
2022-08-30T00:31:51.642Z,58.60
2022-08-30T00:34:18.903Z,58.70
2022-08-30T00:36:48.501Z,58.60
2022-08-30T00:39:15.385Z,58.60
2022-08-30T00:41:42.406Z,58.70
2022-08-30T00:44:15.446Z,58.70
2022-08-30T00:46:42.446Z,58.80
2022-08-30T00:49:11.856Z,58.70
2022-08-30T00:51:41.709Z,58.70
2022-08-30T00:54:09.280Z,58.70
2022-08-30T00:56:38.869Z,58.70
2022-08-30T00:59:11.821Z,58.80
2022-08-30T01:01:39.045Z,58.90
2022-08-30T01:04:10.195Z,58.80
2022-08-30T01:06:39.885Z,58.90
2022-08-30T01:09:07.639Z,58.90
2022-08-30T01:11:37.809Z,58.90
2022-08-30T01:14:06.897Z,58.90
2022-08-30T01:16:37.512Z,58.90
2022-08-30T01:19:08.420Z,58.90
2022-08-30T01:21:52.690Z,58.90
2022-08-30T01:24:22.354Z,59.00
2022-08-30T01:26:49.253Z,58.90
2022-08-30T01:29:23.233Z,59.00
2022-08-30T01:31:52.252Z,59.00
2022-08-30T01:34:21.674Z,59.00
2022-08-30T01:36:51.144Z,59.00
2022-08-30T01:39:19.315Z,59.00
2022-08-30T01:41:46.502Z,58.90
2022-08-30T01:44:14.641Z,59.00
2022-08-30T01:46:48.893Z,59.10
2022-08-30T01:49:27.295Z,59.10
2022-08-30T01:52:11.485Z,59.10
2022-08-30T01:54:43.421Z,59.10
2022-08-30T01:57:17.709Z,59.20
2022-08-30T01:59:47.745Z,59.10
2022-08-30T02:02:23.156Z,59.10
2022-08-30T02:04:53.522Z,59.20
2022-08-30T02:07:22.413Z,59.20
2022-08-30T02:09:49.974Z,59.20
2022-08-30T02:12:17.006Z,59.20
2022-08-30T02:14:44.228Z,59.20
2022-08-30T02:17:15.745Z,59.20
2022-08-30T02:19:43.296Z,59.30
2022-08-30T02:22:11.026Z,59.30
2022-08-30T02:24:40.546Z,59.20
2022-08-30T02:27:09.841Z,59.20
2022-08-30T02:29:39.679Z,59.30
2022-08-30T02:32:08.797Z,59.30
2022-08-30T02:34:38.218Z,59.30
2022-08-30T02:37:07.573Z,59.40
2022-08-30T02:39:40.520Z,59.40
2022-08-30T02:42:07.705Z,59.50
2022-08-30T02:44:37.128Z,59.40
2022-08-30T02:47:09.022Z,59.30
2022-08-30T02:49:39.070Z,59.30
2022-08-30T02:52:06.501Z,59.30
2022-08-30T02:54:33.879Z,59.40
2022-08-30T02:57:06.701Z,59.40
2022-08-30T02:59:33.974Z,59.40
2022-08-30T03:02:03.165Z,59.50
2022-08-30T03:04:30.276Z,59.60
2022-08-30T03:06:57.214Z,59.60
2022-08-30T03:09:26.371Z,59.60
2022-08-30T03:11:53.348Z,59.60
2022-08-30T03:14:20.285Z,59.60
2022-08-30T03:16:50.228Z,59.60
2022-08-30T03:19:19.869Z,59.60
2022-08-30T03:21:50.380Z,59.60
2022-08-30T03:24:19.672Z,59.70
2022-08-30T03:26:48.923Z,59.70
2022-08-30T03:29:15.901Z,59.70
2022-08-30T03:31:53.018Z,59.70
2022-08-30T03:34:23.524Z,59.70
2022-08-30T03:36:52.746Z,59.60
2022-08-30T03:39:20.496Z,59.60
2022-08-30T03:41:49.925Z,59.60
2022-08-30T03:44:19.286Z,59.60
2022-08-30T03:46:47.218Z,59.60
2022-08-30T03:49:16.690Z,59.50
2022-08-30T03:51:47.411Z,59.60
2022-08-30T03:54:17.223Z,59.60
2022-08-30T03:56:44.406Z,59.60
2022-08-30T03:59:13.744Z,59.70
2022-08-30T04:01:42.060Z,59.60
2022-08-30T04:04:09.583Z,59.60
2022-08-30T04:06:36.510Z,59.70
2022-08-30T04:09:04.174Z,59.70
2022-08-30T04:11:31.138Z,59.80
2022-08-30T04:14:00.656Z,59.90
2022-08-30T04:16:27.820Z,60.70
2022-08-30T04:18:56.866Z,59.90
2022-08-30T04:21:29.812Z,59.80
2022-08-30T04:24:01.251Z,59.90
2022-08-30T04:26:29.393Z,59.90
2022-08-30T04:28:58.152Z,60.00
2022-08-30T04:31:27.352Z,59.90
2022-08-30T04:33:54.399Z,59.90
2022-08-30T04:36:21.301Z,59.90
2022-08-30T04:38:48.235Z,59.90
2022-08-30T04:41:24.336Z,59.90
2022-08-30T04:43:51.608Z,59.90
2022-08-30T04:46:22.259Z,59.90
2022-08-30T04:48:49.537Z,60.00
2022-08-30T04:51:18.105Z,60.00
2022-08-30T04:53:48.951Z,60.00
2022-08-30T04:56:39.374Z,60.10
2022-08-30T04:59:08.505Z,60.10
2022-08-30T05:01:44.674Z,60.20
2022-08-30T05:04:14.700Z,61.00
2022-08-30T05:06:44.404Z,60.30
2022-08-30T05:09:13.736Z,60.40
2022-08-30T05:11:44.061Z,60.60
2022-08-30T05:14:11.133Z,60.60
2022-08-30T05:16:44.340Z,60.60
2022-08-30T05:19:11.575Z,60.70
2022-08-30T05:21:44.648Z,60.70
2022-08-30T05:24:11.694Z,61.00
2022-08-30T05:26:43.201Z,60.90
2022-08-30T05:29:10.078Z,61.00
2022-08-30T05:31:40.183Z,61.20
2022-08-30T05:34:09.466Z,61.00
2022-08-30T05:39:33.953Z,61.20
2022-08-30T05:42:24.664Z,61.20
2022-08-30T05:45:01.256Z,61.30
2022-08-30T05:47:30.809Z,61.40
2022-08-30T05:50:07.275Z,61.40
2022-08-30T05:52:39.381Z,61.50
2022-08-30T05:55:12.686Z,61.50
2022-08-30T05:57:41.805Z,61.40
2022-08-30T06:00:17.620Z,61.30
2022-08-30T06:02:45.245Z,61.50
2022-08-30T06:05:14.447Z,61.30
2022-08-30T06:07:44.749Z,61.50
2022-08-30T06:10:17.335Z,61.40
2022-08-30T06:12:44.366Z,61.50
2022-08-30T06:15:14.196Z,61.50
2022-08-30T06:17:41.311Z,61.60
2022-08-30T06:20:11.397Z,61.70
2022-08-30T06:22:41.012Z,61.80
2022-08-30T06:25:09.001Z,61.80
2022-08-30T06:27:36.050Z,61.70
2022-08-30T06:30:08.184Z,61.70
2022-08-30T06:32:35.474Z,61.90
2022-08-30T06:35:02.547Z,62.00
2022-08-30T06:37:30.312Z,61.90
2022-08-30T06:39:59.000Z,62.00
2022-08-30T06:42:32.166Z,61.90
2022-08-30T06:45:11.058Z,61.80
2022-08-30T06:47:40.385Z,61.90
2022-08-30T06:50:11.851Z,62.00
2022-08-30T06:52:43.689Z,62.10
2022-08-30T06:55:18.344Z,62.10
2022-08-30T06:57:51.188Z,62.20
2022-08-30T07:00:22.086Z,62.20
2022-08-30T07:02:53.113Z,62.30
2022-08-30T07:05:23.768Z,62.40
2022-08-30T07:07:54.142Z,62.50
2022-08-30T07:10:21.843Z,62.40
2022-08-30T07:12:50.031Z,63.30
2022-08-30T07:15:20.570Z,62.40
2022-08-30T07:18:09.057Z,62.40
2022-08-30T07:20:40.428Z,62.40
2022-08-30T07:23:08.857Z,62.40
2022-08-30T07:25:41.358Z,62.40
2022-08-30T07:28:12.039Z,62.40
2022-08-30T07:30:40.838Z,62.50
2022-08-30T07:33:08.536Z,62.40
2022-08-30T07:35:37.349Z,62.10
2022-08-30T07:38:04.463Z,61.80
2022-08-30T07:40:31.429Z,61.30
2022-08-30T07:43:02.021Z,61.00
2022-08-30T07:45:28.980Z,60.50
2022-08-30T07:47:57.651Z,60.20
2022-08-30T07:50:27.563Z,60.00
2022-08-30T07:52:54.599Z,59.80
2022-08-30T07:55:21.775Z,59.60
2022-08-30T07:57:51.905Z,59.20
2022-08-30T08:00:21.716Z,59.30
2022-08-30T08:02:51.693Z,59.20
2022-08-30T08:05:22.029Z,59.10
2022-08-30T08:07:54.069Z,58.90
2022-08-30T08:10:23.497Z,59.00
2022-08-30T08:12:50.497Z,58.50
2022-08-30T08:15:19.256Z,58.30
2022-08-30T08:17:46.167Z,57.60
2022-08-30T08:20:16.081Z,56.90
2022-08-30T08:22:43.015Z,56.00
2022-08-30T08:25:12.435Z,55.40
2022-08-30T08:27:39.461Z,54.90
2022-08-30T08:30:07.270Z,55.00
2022-08-30T08:32:34.314Z,54.80
2022-08-30T08:35:03.733Z,54.50
2022-08-30T08:37:32.958Z,54.20
2022-08-30T08:40:04.669Z,54.00
2022-08-30T08:43:01.113Z,53.80
2022-08-30T08:46:07.991Z,52.50
2022-08-30T08:48:58.476Z,52.50
2022-08-30T08:51:50.682Z,52.00
2022-08-30T08:54:51.476Z,51.80
2022-08-30T08:57:24.493Z,51.40
2022-08-30T08:59:54.414Z,51.40
2022-08-30T09:02:30.274Z,51.10
2022-08-30T09:05:02.194Z,50.20
2022-08-30T09:07:43.033Z,49.50
2022-08-30T09:10:10.002Z,48.10
2022-08-30T09:12:37.044Z,49.50
2022-08-30T09:15:20.376Z,48.80
2022-08-30T09:17:53.309Z,47.00
2022-08-30T09:20:43.241Z,45.80
2022-08-30T09:23:17.425Z,44.30
2022-08-30T09:26:16.029Z,43.80
2022-08-30T09:28:54.983Z,44.00
2022-08-30T09:31:26.292Z,44.60
2022-08-30T09:34:06.190Z,44.70
2022-08-30T09:36:46.837Z,44.10
2022-08-30T09:39:37.635Z,44.20
2022-08-30T09:42:33.604Z,43.80
2022-08-30T09:45:13.620Z,43.60
2022-08-30T09:47:43.785Z,43.00
2022-08-30T09:50:24.288Z,42.20
2022-08-30T09:53:23.615Z,42.70
2022-08-30T09:56:39.991Z,42.20
2022-08-30T09:59:53.368Z,41.30
2022-08-30T10:02:58.096Z,41.40
2022-08-30T10:05:50.614Z,41.10
2022-08-30T10:08:39.063Z,40.60
2022-08-30T10:11:07.577Z,39.40
2022-08-30T10:14:26.479Z,39.80
2022-08-30T10:17:30.746Z,39.70
2022-08-30T10:20:15.456Z,39.50
2022-08-30T10:23:24.904Z,39.60
2022-08-30T10:26:09.931Z,39.50
2022-08-30T10:28:53.666Z,39.70
2022-08-30T10:31:35.534Z,39.80
2022-08-30T10:34:10.887Z,40.30
2022-08-30T10:36:51.461Z,40.80
2022-08-30T10:39:27.867Z,41.70
2022-08-30T10:42:31.108Z,41.60
2022-08-30T10:45:14.239Z,41.90
2022-08-30T10:47:49.375Z,42.10
2022-08-30T10:50:24.408Z,42.70
2022-08-30T10:53:10.659Z,42.80
2022-08-30T10:55:54.172Z,43.50
2022-08-30T10:58:21.385Z,42.80
2022-08-30T11:01:46.224Z,42.90
2022-08-30T11:04:45.444Z,42.40
2022-08-30T11:07:28.028Z,43.70
2022-08-30T11:10:07.087Z,43.20
2022-08-30T11:13:21.979Z,42.70
2022-08-30T11:16:01.232Z,42.10
2022-08-30T11:18:43.490Z,41.90
2022-08-30T11:21:33.388Z,42.70
2022-08-30T11:24:28.178Z,42.00
2022-08-30T11:27:00.346Z,42.20
2022-08-30T11:29:35.351Z,42.70
2022-08-30T11:32:18.391Z,43.00
2022-08-30T11:34:45.395Z,42.60
2022-08-30T11:37:37.334Z,42.70
2022-08-30T11:40:13.226Z,42.70
2022-08-30T11:42:50.161Z,42.70
2022-08-30T11:45:26.784Z,42.00
2022-08-30T11:48:04.668Z,41.50
2022-08-30T11:50:55.086Z,41.80
2022-08-30T11:53:30.703Z,42.70
2022-08-30T11:56:21.336Z,42.40
2022-08-30T11:59:50.828Z,42.80
2022-08-30T12:02:41.627Z,43.20
2022-08-30T12:05:49.330Z,42.40
2022-08-30T12:08:27.877Z,41.10
2022-08-30T12:11:12.081Z,41.60
2022-08-30T12:13:47.642Z,41.70
2022-08-30T12:16:22.935Z,41.40
2022-08-30T12:19:04.623Z,41.00
2022-08-30T12:21:43.713Z,41.30
2022-08-30T12:24:28.146Z,41.90
2022-08-30T12:26:58.224Z,41.50
2022-08-30T12:29:31.017Z,41.00
2022-08-30T12:32:19.047Z,40.40
2022-08-30T12:34:45.922Z,40.10
2022-08-30T12:37:30.240Z,41.20
2022-08-30T12:40:18.718Z,42.00
2022-08-30T12:42:56.601Z,42.50
2022-08-30T12:45:51.471Z,43.20
2022-08-30T12:48:20.171Z,43.50
2022-08-30T12:50:53.593Z,43.40
2022-08-30T12:53:29.131Z,43.20
2022-08-30T12:56:15.490Z,43.30
2022-08-30T12:58:48.230Z,43.50
2022-08-30T13:01:26.417Z,43.50
2022-08-30T13:04:23.393Z,43.60
2022-08-30T13:06:58.801Z,43.20
2022-08-30T13:09:38.363Z,43.00
2022-08-30T13:12:28.955Z,43.00
2022-08-30T13:15:34.056Z,42.60
2022-08-30T13:18:28.005Z,42.50
2022-08-30T13:21:25.869Z,42.80
2022-08-30T13:24:06.296Z,43.00
2022-08-30T13:26:39.998Z,42.20
2022-08-30T13:29:15.643Z,42.80
2022-08-30T13:31:45.449Z,43.40
2022-08-30T13:34:18.723Z,43.80
2022-08-30T13:36:54.461Z,43.70
2022-08-30T13:39:25.372Z,43.20
2022-08-30T13:41:55.067Z,43.30
2022-08-30T13:44:41.964Z,44.10
2022-08-30T13:50:01.366Z,43.90
2022-08-30T13:52:28.504Z,43.50
2022-08-30T13:54:57.455Z,43.70
2022-08-30T14:00:22.270Z,43.60
2022-08-30T14:02:55.002Z,43.80
2022-08-30T14:06:09.917Z,43.90
2022-08-30T14:08:48.798Z,44.20
2022-08-30T14:11:22.980Z,42.90
2022-08-30T14:16:42.501Z,42.90
2022-08-30T14:19:12.143Z,43.50
2022-08-30T14:21:41.668Z,43.60
2022-08-30T14:24:12.469Z,43.60
2022-08-30T14:26:51.547Z,43.30
2022-08-30T14:29:26.088Z,42.50
2022-08-30T14:31:53.522Z,42.30
2022-08-30T14:34:23.157Z,42.60
2022-08-30T14:36:56.511Z,42.00
2022-08-30T14:39:26.242Z,41.70
2022-08-30T14:41:55.627Z,41.60
2022-08-30T14:44:26.934Z,41.90
2022-08-30T14:46:55.215Z,42.50
2022-08-30T14:49:23.214Z,42.20
2022-08-30T14:51:53.707Z,43.00
2022-08-30T14:54:27.723Z,42.30
2022-08-30T14:56:58.677Z,42.00
2022-08-30T14:59:29.590Z,42.20
2022-08-30T15:01:56.582Z,42.10
2022-08-30T15:04:25.936Z,42.00
2022-08-30T15:06:57.612Z,42.10
2022-08-30T15:09:25.877Z,42.70
2022-08-30T15:11:58.640Z,43.60
2022-08-30T15:14:27.226Z,43.90
2022-08-30T15:16:56.393Z,44.10
2022-08-30T15:19:23.507Z,43.80
2022-08-30T15:21:51.057Z,44.40
2022-08-30T15:24:29.360Z,44.10
2022-08-30T15:27:00.954Z,44.50
2022-08-30T15:29:31.792Z,44.20
2022-08-30T15:32:00.462Z,44.40
2022-08-30T15:34:28.326Z,44.90
2022-08-30T15:36:56.502Z,45.10
2022-08-30T15:39:24.364Z,45.40
2022-08-30T15:41:57.119Z,45.60
2022-08-30T15:44:28.813Z,45.80
2022-08-30T15:46:55.766Z,46.00
2022-08-30T15:49:24.667Z,46.30
2022-08-30T15:51:54.088Z,46.40
2022-08-30T15:54:23.715Z,46.50
2022-08-30T15:56:59.281Z,46.50
2022-08-30T15:59:28.605Z,46.80
2022-08-30T16:01:55.975Z,46.50
2022-08-30T16:04:27.150Z,46.10
2022-08-30T16:06:54.794Z,46.20
2022-08-30T16:09:23.812Z,46.50
2022-08-30T16:11:51.025Z,47.00
2022-08-30T16:14:18.012Z,47.00
2022-08-30T16:16:50.138Z,46.80
2022-08-30T16:19:17.174Z,47.20
2022-08-30T16:21:44.841Z,47.00
2022-08-30T16:24:14.375Z,47.00
2022-08-30T16:26:43.450Z,47.10
2022-08-30T16:29:14.673Z,46.90
2022-08-30T16:31:47.423Z,46.90
2022-08-30T16:34:21.062Z,47.00
2022-08-30T16:36:48.682Z,46.90
2022-08-30T16:39:18.526Z,46.90
2022-08-30T16:41:46.615Z,46.80
2022-08-30T16:44:18.823Z,46.80
2022-08-30T16:46:53.169Z,47.10
2022-08-30T16:49:25.607Z,47.30
2022-08-30T16:51:57.715Z,47.70
2022-08-30T16:54:27.542Z,47.50
2022-08-30T16:56:55.529Z,47.60
2022-08-30T16:59:23.205Z,47.60
2022-08-30T17:01:51.012Z,47.40
2022-08-30T17:04:19.673Z,47.60
2022-08-30T17:06:49.952Z,47.70
2022-08-30T17:09:18.853Z,47.90
2022-08-30T17:11:49.477Z,48.10
2022-08-30T17:14:22.872Z,47.90
2022-08-30T17:16:58.520Z,47.80
2022-08-30T17:19:28.658Z,48.00
2022-08-30T17:21:56.353Z,48.20
2022-08-30T17:24:27.521Z,48.30
2022-08-30T17:26:54.613Z,48.20
2022-08-30T17:29:24.070Z,48.10
2022-08-30T17:32:16.956Z,48.20
2022-08-30T17:34:44.497Z,48.80
2022-08-30T17:37:14.064Z,48.80
2022-08-30T17:39:41.671Z,49.00
2022-08-30T17:42:12.017Z,49.20
2022-08-30T17:44:42.028Z,49.30
2022-08-30T17:47:10.153Z,49.60
2022-08-30T17:49:37.903Z,49.80
2022-08-30T17:52:05.509Z,50.10
2022-08-30T17:54:35.042Z,50.10
2022-08-30T17:57:10.696Z,50.00
2022-08-30T17:59:39.142Z,50.20
2022-08-30T18:02:07.033Z,50.50
2022-08-30T18:04:39.180Z,50.60
2022-08-30T18:07:12.485Z,50.50
2022-08-30T18:09:40.700Z,50.50
2022-08-30T18:12:14.129Z,50.50
2022-08-30T18:14:41.315Z,50.80
2022-08-30T18:17:10.911Z,50.80
2022-08-30T18:19:46.107Z,51.10
2022-08-30T18:22:15.313Z,51.10
2022-08-30T18:24:42.345Z,51.10
2022-08-30T18:27:09.478Z,51.10
2022-08-30T18:29:38.583Z,51.20
2022-08-30T18:32:06.007Z,51.40
2022-08-30T18:34:36.220Z,51.40
2022-08-30T18:37:06.251Z,51.60
2022-08-30T18:39:38.875Z,51.70
2022-08-30T18:42:11.092Z,51.70
2022-08-30T18:44:39.835Z,51.70
2022-08-30T18:47:10.021Z,51.70
2022-08-30T18:49:37.716Z,51.90
2022-08-30T18:52:08.159Z,52.00
2022-08-30T18:54:48.463Z,52.20
2022-08-30T18:57:20.237Z,52.20
2022-08-30T18:59:47.587Z,52.10
2022-08-30T19:02:16.412Z,52.20
2022-08-30T19:04:45.754Z,52.20
2022-08-30T19:07:16.024Z,52.40
2022-08-30T19:09:46.734Z,52.60
2022-08-30T19:12:17.813Z,52.50
2022-08-30T19:14:45.012Z,52.50
2022-08-30T19:17:15.118Z,52.50
2022-08-30T19:19:48.499Z,52.70
2022-08-30T19:22:19.063Z,52.90
2022-08-30T19:24:46.839Z,52.90
2022-08-30T19:27:14.095Z,53.00
2022-08-30T19:29:41.246Z,53.00
2022-08-30T19:32:14.779Z,53.20
2022-08-30T19:34:42.208Z,53.10
2022-08-30T19:37:09.575Z,53.10
2022-08-30T19:39:43.170Z,53.10
2022-08-30T19:42:14.409Z,53.20
2022-08-30T19:44:41.814Z,53.20
2022-08-30T19:47:10.956Z,53.20
2022-08-30T19:49:38.220Z,53.20
2022-08-30T19:52:05.689Z,53.30
2022-08-30T19:54:36.208Z,53.40
2022-08-30T19:57:03.840Z,53.30
2022-08-30T19:59:31.358Z,53.40
2022-08-30T20:01:58.827Z,53.50
2022-08-30T20:04:27.047Z,53.40
2022-08-30T20:06:54.285Z,53.50
2022-08-30T20:09:25.232Z,53.50
2022-08-30T20:11:59.138Z,53.70
2022-08-30T20:14:27.221Z,53.60
2022-08-30T20:16:54.488Z,53.60
2022-08-30T20:19:21.845Z,53.70
2022-08-30T20:22:04.323Z,53.80
2022-08-30T20:24:38.429Z,53.90
2022-08-30T20:27:06.454Z,53.90
2022-08-30T20:29:34.514Z,54.00
2022-08-30T20:32:03.251Z,54.00
2022-08-30T20:34:33.710Z,54.10
2022-08-30T20:37:08.217Z,54.20
2022-08-30T20:39:36.229Z,54.30
2022-08-30T20:42:05.351Z,54.40
2022-08-30T20:44:32.762Z,54.40
2022-08-30T20:47:00.027Z,54.50
2022-08-30T20:49:27.625Z,54.50
2022-08-30T20:51:54.732Z,54.40
2022-08-30T20:54:22.701Z,54.30
2022-08-30T20:56:51.467Z,54.20
2022-08-30T20:59:19.159Z,54.30
2022-08-30T21:01:48.427Z,54.40
2022-08-30T21:04:20.092Z,54.30
2022-08-30T21:06:49.415Z,54.40
2022-08-30T21:09:18.258Z,54.20
2022-08-30T21:11:49.166Z,54.20
2022-08-30T21:14:21.906Z,54.60
2022-08-30T21:16:52.231Z,54.00
2022-08-30T21:19:24.178Z,53.70
2022-08-30T21:21:53.425Z,53.70
2022-08-30T21:24:20.397Z,53.60
2022-08-30T21:26:51.680Z,53.70
2022-08-30T21:29:23.446Z,53.60
2022-08-30T21:31:52.955Z,53.70
2022-08-30T21:34:22.381Z,53.50
2022-08-30T21:36:49.866Z,53.50
2022-08-30T21:39:16.747Z,53.30
2022-08-30T21:41:46.038Z,53.40
2022-08-30T21:44:19.956Z,53.50
2022-08-30T21:46:52.122Z,53.80
2022-08-30T21:49:24.111Z,53.70
2022-08-30T21:51:53.498Z,53.80
2022-08-30T21:54:25.074Z,53.90
2022-08-30T21:57:00.721Z,54.00
2022-08-30T21:59:28.506Z,53.90
2022-08-30T22:01:59.086Z,54.00
2022-08-30T22:04:29.454Z,54.00
2022-08-30T22:06:56.461Z,54.00
2022-08-30T22:09:25.142Z,54.10
2022-08-30T22:11:55.081Z,54.10
2022-08-30T22:14:26.719Z,54.00
2022-08-30T22:16:54.113Z,54.00
2022-08-30T22:19:23.292Z,54.00
2022-08-30T22:21:52.256Z,54.10
2022-08-30T22:24:21.861Z,54.30
2022-08-30T22:26:48.811Z,54.40
2022-08-30T22:29:16.634Z,54.50
2022-08-30T22:31:44.041Z,54.50
2022-08-30T22:34:11.347Z,54.60
2022-08-30T22:36:41.100Z,54.70
2022-08-30T22:39:12.000Z,54.90
2022-08-30T22:41:41.195Z,55.10
2022-08-30T22:44:11.490Z,55.10
2022-08-30T22:46:41.187Z,55.10
2022-08-30T22:49:10.207Z,55.10
2022-08-30T22:51:38.533Z,55.20
2022-08-30T22:54:08.459Z,55.30
2022-08-30T22:56:39.866Z,55.30
2022-08-30T22:59:07.159Z,55.40
2022-08-30T23:01:40.158Z,55.50
2022-08-30T23:04:08.778Z,55.60
2022-08-30T23:06:36.423Z,55.60
2022-08-30T23:09:05.652Z,55.80
2022-08-30T23:11:36.511Z,55.80
2022-08-30T23:14:05.214Z,55.90
2022-08-30T23:16:32.996Z,55.90
2022-08-30T23:19:00.072Z,56.00
2022-08-30T23:21:32.229Z,56.00
2022-08-30T23:24:20.529Z,56.10
2022-08-30T23:27:06.805Z,56.10
2022-08-30T23:29:55.678Z,56.10
2022-08-30T23:32:41.207Z,56.10
2022-08-30T23:35:30.937Z,56.20
2022-08-30T23:38:23.205Z,56.40
2022-08-30T23:41:08.716Z,56.50
2022-08-30T23:44:03.079Z,56.60
2022-08-30T23:46:49.145Z,56.50
2022-08-30T23:49:34.905Z,56.50
2022-08-30T23:52:21.079Z,56.60
2022-08-30T23:55:06.388Z,56.50
2022-08-30T23:57:51.950Z,56.50
